Time;durP1;ratioP1;P1;durP2;ratioP2;P2;SDS_P1;SDS_P2;PMS_P1;PMS_P2;Temp;Humidity;BMP_temperature;BMP_pressure;BME280_temperature;BME280_humidity;BME280_pressure;Samples;Min_cycle;Max_cycle;Signal;HPM_P1;HPM_P2
2022/08/16 00:02:04;;;;;;;0.43;0.43;;;;;;;20.59;91.21;99784.63;5084865;28;20107;-68
2022/08/16 00:04:29;;;;;;;0.98;0.85;;;;;;;20.60;90.97;99781.06;5084712;28;20031;-69
2022/08/16 00:06:55;;;;;;;0.45;0.45;;;;;;;20.56;90.93;99768.06;5084647;28;20033;-69
2022/08/16 00:09:21;;;;;;;0.20;0.20;;;;;;;20.55;91.16;99771.66;5086236;28;20034;-69
2022/08/16 00:11:47;;;;;;;0.85;0.85;;;;;;;20.54;91.32;99764.66;5088202;28;20033;-70
2022/08/16 00:14:19;;;;;;;0.57;0.57;;;;;;;20.54;90.63;99767.28;5088161;28;20056;-69
2022/08/16 00:16:46;;;;;;;0.57;0.57;;;;;;;20.52;90.80;99777.09;5088313;28;20028;-69
2022/08/16 00:19:14;;;;;;;0.55;0.55;;;;;;;20.52;90.86;99776.25;5088210;28;20025;-69
2022/08/16 00:21:41;;;;;;;0.20;0.20;;;;;;;20.50;91.15;99778.97;5088059;28;20028;-69
2022/08/16 00:24:07;;;;;;;0.25;0.25;;;;;;;20.49;90.96;99776.44;5088052;28;20020;-69
2022/08/16 00:26:32;;;;;;;0.30;0.30;;;;;;;20.48;90.90;99772.13;5087876;28;20020;-70
2022/08/16 00:28:57;;;;;;;1.13;1.13;;;;;;;20.44;91.05;99768.81;5087842;28;20017;-68
2022/08/16 00:31:23;;;;;;;7.13;1.50;;;;;;;20.45;91.06;99769.66;5087613;28;20028;-69
2022/08/16 00:33:48;;;;;;;0.20;0.20;;;;;;;20.42;90.91;99762.75;5088093;28;20024;-69
2022/08/16 00:36:13;;;;;;;0.40;0.40;;;;;;;20.41;91.46;99769.00;5087694;28;20031;-69
2022/08/16 00:38:39;;;;;;;0.63;0.63;;;;;;;20.41;91.13;99763.72;5087752;28;20044;-70
2022/08/16 00:41:06;;;;;;;0.68;0.68;;;;;;;20.39;91.10;99760.31;5087769;28;20025;-67
2022/08/16 00:43:34;;;;;;;0.45;0.45;;;;;;;20.39;91.03;99757.69;5087540;28;20051;-67
2022/08/16 00:46:45;;;;;;;0.30;0.30;;;;;;;20.42;90.80;99757.50;5087539;28;20538;-68
2022/08/16 00:49:12;;;;;;;1.65;1.55;;;;;;;20.43;91.10;99761.84;5031923;28;20110;-67
2022/08/16 00:51:37;;;;;;;0.30;0.30;;;;;;;20.48;90.18;99769.47;5087584;28;20028;-67
2022/08/16 00:54:03;;;;;;;0.30;0.30;;;;;;;20.47;90.35;99770.41;5087628;28;20027;-68
2022/08/16 00:56:36;;;;;;;0.20;0.20;;;;;;;20.47;90.70;99758.06;5087194;28;20078;-68
2022/08/16 00:59:04;;;;;;;4.10;1.80;;;;;;;20.50;90.62;99757.88;5087137;28;20078;-67
2022/08/16 01:01:31;;;;;;;0.50;0.50;;;;;;;20.61;89.13;99769.56;5087295;28;20031;-68
2022/08/16 01:03:59;;;;;;;1.00;1.00;;;;;;;20.53;89.93;99760.34;5087254;28;20051;-68
2022/08/16 01:06:25;;;;;;;0.68;0.68;;;;;;;20.58;89.34;99764.47;5087008;28;20028;-68
2022/08/16 01:08:52;;;;;;;0.40;0.40;;;;;;;20.58;89.74;99759.19;5086800;28;20490;-68
2022/08/16 01:11:18;;;;;;;0.50;0.50;;;;;;;20.59;88.87;99753.00;5087096;28;20029;-68
2022/08/16 01:13:45;;;;;;;0.50;0.50;;;;;;;20.54;89.50;99754.09;5086817;28;20448;-68
2022/08/16 01:16:20;;;;;;;1.52;1.45;;;;;;;20.48;89.72;99749.22;5086924;28;20048;-69
2022/08/16 01:18:51;;;;;;;0.55;0.55;;;;;;;20.48;89.98;99756.28;5086965;28;20028;-68
2022/08/16 01:21:20;;;;;;;1.08;1.08;;;;;;;20.46;90.09;99760.81;5086189;28;20067;-68
2022/08/16 01:23:55;;;;;;;0.20;0.20;;;;;;;20.48;90.07;99758.94;5086776;28;20047;-69
2022/08/16 01:26:22;;;;;;;1.27;1.17;;;;;;;20.40;90.23;99748.84;5086622;28;20021;-69
2022/08/16 01:28:48;;;;;;;0.30;0.30;;;;;;;20.40;90.36;99752.31;5086457;28;20032;-68
2022/08/16 01:31:15;;;;;;;0.28;0.28;;;;;;;20.36;90.41;99749.97;5086612;28;20081;-68
2022/08/16 01:33:41;;;;;;;0.63;0.63;;;;;;;20.40;90.28;99736.50;5086255;28;20086;-68
2022/08/16 01:36:08;;;;;;;1.45;1.08;;;;;;;20.36;90.16;99735.00;5068536;28;20472;-68
2022/08/16 01:38:35;;;;;;;0.20;0.20;;;;;;;20.37;90.12;99736.69;5086221;28;20031;-68
2022/08/16 01:41:08;;;;;;;0.52;0.52;;;;;;;20.38;90.17;99735.75;5067989;28;20032;-68
2022/08/16 01:43:37;;;;;;;1.70;0.90;;;;;;;20.34;90.22;99738.66;5086099;28;20020;-69
2022/08/16 01:46:05;;;;;;;0.25;0.25;;;;;;;20.36;89.78;99729.72;5085842;28;20055;-68
2022/08/16 01:48:32;;;;;;;1.48;1.38;;;;;;;20.35;89.57;99729.81;5086036;28;20024;-68
2022/08/16 01:50:59;;;;;;;1.00;1.00;;;;;;;20.28;90.05;99732.84;5086141;28;20054;-68
2022/08/16 01:53:27;;;;;;;0.82;0.80;;;;;;;20.28;89.56;99730.19;5086235;28;20123;-68
2022/08/16 01:55:52;;;;;;;0.20;0.20;;;;;;;20.26;89.61;99729.44;5086099;28;20035;-69
2022/08/16 01:58:20;;;;;;;0.68;0.55;;;;;;;20.23;89.78;99732.25;5085910;28;20017;-67
2022/08/16 02:00:46;;;;;;;0.85;0.85;;;;;;;20.18;90.34;99729.91;5085949;28;20032;-68
2022/08/16 02:03:13;;;;;;;0.20;0.20;;;;;;;20.21;90.08;99718.31;5086047;28;20047;-68
2022/08/16 02:05:39;;;;;;;0.30;0.30;;;;;;;20.20;90.10;99727.16;5086024;28;20025;-68
2022/08/16 02:08:05;;;;;;;0.47;0.47;;;;;;;20.18;90.06;99722.00;5086006;28;20076;-68
2022/08/16 02:10:33;;;;;;;1.58;0.82;;;;;;;20.18;89.96;99718.50;5085820;28;20025;-68
2022/08/16 02:12:58;;;;;;;5.88;1.95;;;;;;;20.18;90.40;99732.53;5067754;28;20027;-64
2022/08/16 02:15:27;;;;;;;0.75;0.75;;;;;;;20.16;90.44;99723.03;5085813;28;20020;-68
2022/08/16 02:17:54;;;;;;;0.80;0.80;;;;;;;20.19;89.89;99734.22;5085927;28;20027;-69
2022/08/16 02:20:21;;;;;;;0.20;0.20;;;;;;;20.20;90.04;99735.06;5085724;28;20046;-68
2022/08/16 02:22:47;;;;;;;0.40;0.40;;;;;;;20.18;90.25;99747.47;5085622;28;20020;-67
2022/08/16 02:25:14;;;;;;;0.65;0.65;;;;;;;20.18;90.08;99737.81;5085658;28;20021;-68
2022/08/16 02:27:42;;;;;;;0.20;0.20;;;;;;;20.18;90.43;99737.81;5085619;28;20088;-68
2022/08/16 02:30:15;;;;;;;0.30;0.30;;;;;;;20.20;89.93;99735.06;5085420;28;20083;-68
2022/08/16 02:32:42;;;;;;;1.02;1.02;;;;;;;20.18;89.98;99732.53;5067427;28;20039;-67
2022/08/16 02:35:08;;;;;;;1.42;1.33;;;;;;;20.16;89.64;99736.22;5085637;28;20190;-68
2022/08/16 02:37:33;;;;;;;0.20;0.20;;;;;;;20.14;90.16;99738.06;5085393;28;20028;-67
2022/08/16 02:39:59;;;;;;;0.40;0.40;;;;;;;20.15;90.02;99735.34;5085496;28;20134;-68
2022/08/16 02:42:24;;;;;;;0.52;0.52;;;;;;;20.16;89.61;99730.94;5085540;28;20216;-67
2022/08/16 02:44:49;;;;;;;0.40;0.40;;;;;;;20.12;89.65;99737.31;5085355;28;20441;-67
2022/08/16 02:47:15;;;;;;;0.50;0.50;;;;;;;20.09;89.84;99724.31;5085352;28;20031;-68
2022/08/16 02:49:42;;;;;;;0.20;0.20;;;;;;;20.10;89.48;99736.53;5085394;28;20108;-68
2022/08/16 02:52:09;;;;;;;1.38;1.27;;;;;;;20.09;89.38;99732.22;5067446;28;20040;-69
2022/08/16 02:54:35;;;;;;;1.70;1.20;;;;;;;20.04;89.73;99730.72;5085089;28;20512;-69
2022/08/16 02:57:01;;;;;;;0.93;0.80;;;;;;;20.01;89.69;99720.34;5085488;28;20107;-68
2022/08/16 02:59:26;;;;;;;0.30;0.30;;;;;;;20.06;89.21;99720.09;5085287;28;20107;-67
2022/08/16 03:01:52;;;;;;;0.73;0.73;;;;;;;20.00;89.32;99718.63;5085351;28;20021;-68
2022/08/16 03:04:17;;;;;;;1.05;1.05;;;;;;;20.00;89.40;99710.72;5085050;28;20333;-68
2022/08/16 03:06:43;;;;;;;3.03;1.67;;;;;;;20.04;88.32;99714.91;5085041;28;20024;-68
2022/08/16 03:09:09;;;;;;;0.40;0.40;;;;;;;20.00;88.09;99708.09;5085190;28;20040;-68
2022/08/16 03:11:34;;;;;;;0.25;0.25;;;;;;;19.97;88.31;99707.44;5085065;28;20028;-68
2022/08/16 03:14:00;;;;;;;2.30;0.95;;;;;;;19.80;88.25;99688.19;5085073;28;20025;-67
2022/08/16 03:16:26;;;;;;;0.40;0.40;;;;;;;19.94;87.98;99709.31;5085145;28;20021;-67
2022/08/16 03:18:52;;;;;;;0.20;0.20;;;;;;;19.89;88.02;99707.91;5085070;28;20118;-67
2022/08/16 03:21:17;;;;;;;0.50;0.50;;;;;;;19.84;88.28;99707.31;5085140;28;20105;-67
2022/08/16 03:23:43;;;;;;;0.30;0.30;;;;;;;19.79;88.82;99713.69;5085222;28;20052;-68
2022/08/16 03:26:09;;;;;;;0.57;0.57;;;;;;;19.76;88.59;99707.75;5085015;28;20085;-67
2022/08/16 03:28:34;;;;;;;0.75;0.75;;;;;;;19.78;88.41;99719.88;5084555;28;20051;-67
2022/08/16 03:30:59;;;;;;;0.43;0.43;;;;;;;19.72;89.04;99703.59;5085090;28;20023;-68
2022/08/16 03:33:26;;;;;;;0.20;0.20;;;;;;;19.73;88.49;99708.78;5084782;28;20086;-68
2022/08/16 03:35:58;;;;;;;2.60;1.08;;;;;;;19.76;88.20;99713.03;5084869;28;20017;-68
2022/08/16 03:38:23;;;;;;;;;;;;;;;19.85;87.56;99714.25;5085371;28;20025;-68
2022/08/16 03:40:50;;;;;;;0.50;0.50;;;;;;;19.85;87.03;99707.22;5084864;28;19916;-68
2022/08/16 03:43:15;;;;;;;4.78;3.10;;;;;;;19.93;86.38;99702.34;5084663;28;20059;-67
2022/08/16 03:45:41;;;;;;;0.20;0.20;;;;;;;19.85;86.95;99703.72;5088688;28;20049;-68
2022/08/16 03:48:08;;;;;;;0.50;0.50;;;;;;;19.87;86.91;99701.88;5088738;28;20093;-68
2022/08/16 03:50:34;;;;;;;0.82;0.82;;;;;;;19.92;86.34;99699.81;5070422;28;20023;-68
2022/08/16 03:53:00;;;;;;;0.63;0.63;;;;;;;19.93;86.60;99690.97;5088582;28;20122;-68
2022/08/16 03:55:26;;;;;;;2.85;2.25;;;;;;;19.96;86.19;99695.19;5088560;28;20024;-68
2022/08/16 03:57:52;;;;;;;1.48;1.38;;;;;;;19.92;86.85;99689.28;5088610;28;20020;-68
2022/08/16 04:00:24;;;;;;;0.20;0.20;;;;;;;19.93;86.58;99690.97;5088478;28;20023;-68
2022/08/16 04:02:51;;;;;;;0.40;0.40;;;;;;;19.98;86.26;99688.91;5088354;28;20478;-68
2022/08/16 04:05:17;;;;;;;0.28;0.28;;;;;;;20.00;85.75;99680.91;5088347;28;20037;-68
2022/08/16 04:07:43;;;;;;;3.70;2.42;;;;;;;20.04;85.47;99685.94;5088184;28;20110;-69
2022/08/16 04:10:10;;;;;;;0.60;0.60;;;;;;;20.05;85.37;99686.75;5087949;28;20051;-67
2022/08/16 04:12:35;;;;;;;3.90;1.77;;;;;;;20.05;84.99;99684.97;5087872;28;20028;-67
2022/08/16 04:15:03;;;;;;;0.85;0.85;;;;;;;20.00;85.46;99681.75;5087961;28;20031;-68
2022/08/16 04:17:28;;;;;;;0.30;0.30;;;;;;;19.99;85.76;99680.06;5088383;28;20054;-68
2022/08/16 04:19:55;;;;;;;0.20;0.20;;;;;;;19.98;85.60;99678.38;5088340;28;20104;-68
2022/08/16 04:22:21;;;;;;;0.20;0.20;;;;;;;20.05;85.13;99690.25;5088007;28;20093;-68
2022/08/16 04:24:47;;;;;;;0.20;0.20;;;;;;;20.05;85.24;99684.97;5088035;28;20524;-70
2022/08/16 04:27:12;;;;;;;0.20;0.20;;;;;;;20.17;84.21;99682.56;5088019;28;20082;-67
2022/08/16 04:29:37;;;;;;;0.45;0.45;;;;;;;20.18;83.80;99687.72;5087428;28;20024;-68
2022/08/16 04:32:03;;;;;;;0.75;0.75;;;;;;;20.17;84.55;99690.47;5087790;28;20028;-68
2022/08/16 04:34:32;;;;;;;0.40;0.40;;;;;;;20.16;84.67;99686.16;5087273;28;20046;-68
2022/08/16 04:37:00;;;;;;;0.28;0.28;;;;;;;20.19;84.06;99680.69;5088015;28;20024;-68
2022/08/16 04:39:26;;;;;;;0.40;0.40;;;;;;;20.23;84.36;99682.19;5087735;28;20518;-68
2022/08/16 04:41:51;;;;;;;0.75;0.75;;;;;;;20.23;84.18;99674.28;5087925;28;20456;-68
2022/08/16 04:44:17;;;;;;;6.63;2.05;;;;;;;20.21;84.77;99676.16;5087333;28;20056;-67
2022/08/16 04:46:43;;;;;;;0.50;0.50;;;;;;;20.27;84.23;99672.31;5087802;28;20086;-68
2022/08/16 04:49:10;;;;;;;1.63;1.52;;;;;;;20.27;84.75;99675.78;5087719;28;20040;-69
2022/08/16 04:51:36;;;;;;;0.20;0.20;;;;;;;20.29;84.21;99671.25;5087590;28;20039;-68
2022/08/16 04:54:03;;;;;;;0.20;0.20;;;;;;;20.30;84.20;99677.38;5087648;28;20039;-67
2022/08/16 04:56:28;;;;;;;0.52;0.52;;;;;;;20.41;83.50;99679.38;5086311;28;20031;-68
2022/08/16 04:58:54;;;;;;;2.20;2.10;;;;;;;20.41;82.61;99677.59;5087292;28;20388;-67
2022/08/16 05:01:19;;;;;;;0.57;0.57;;;;;;;20.41;83.44;99676.72;5087353;28;20052;-67
2022/08/16 05:03:45;;;;;;;0.32;0.32;;;;;;;20.43;83.05;99677.50;5087454;28;20040;-67
2022/08/16 05:06:12;;;;;;;0.45;0.45;;;;;;;20.47;82.48;99672.84;5087564;28;20027;-68
2022/08/16 05:08:38;;;;;;;0.40;0.40;;;;;;;20.46;82.61;99674.66;5087376;28;20047;-68
2022/08/16 05:11:07;;;;;;;0.20;0.20;;;;;;;20.46;82.21;99671.16;5087078;28;20024;-68
2022/08/16 05:13:35;;;;;;;0.20;0.20;;;;;;;20.44;82.71;99676.53;5086832;28;20029;-67
2022/08/16 05:16:01;;;;;;;0.20;0.20;;;;;;;20.50;81.57;99668.25;5087033;28;20103;-67
2022/08/16 05:18:27;;;;;;;0.28;0.28;;;;;;;20.49;81.59;99677.09;5052397;28;20356;-68
2022/08/16 05:20:52;;;;;;;0.20;0.20;;;;;;;20.50;81.09;99676.16;5086921;28;20017;-67
2022/08/16 05:23:18;;;;;;;0.20;0.20;;;;;;;20.52;80.93;99673.41;5086691;28;20035;-68
2022/08/16 05:25:43;;;;;;;0.20;0.20;;;;;;;20.56;80.19;99670.50;5086881;28;20035;-68
2022/08/16 05:28:10;;;;;;;0.20;0.20;;;;;;;20.52;80.62;99669.00;5086315;28;20531;-67
2022/08/16 05:30:36;;;;;;;0.20;0.20;;;;;;;20.49;80.82;99665.69;5087009;28;20033;-68
2022/08/16 05:33:03;;;;;;;0.60;0.60;;;;;;;20.50;79.65;99670.03;5086623;28;20025;-68
2022/08/16 05:35:28;;;;;;;0.40;0.40;;;;;;;20.50;79.69;99660.34;5086676;28;20044;-68
2022/08/16 05:37:53;;;;;;;0.30;0.30;;;;;;;20.63;78.13;99655.16;5086614;28;20024;-68
2022/08/16 05:40:19;;;;;;;1.35;1.30;;;;;;;20.52;78.99;99666.38;5086596;28;20013;-68
2022/08/16 05:42:44;;;;;;;0.20;0.20;;;;;;;20.51;79.23;99669.94;5086537;28;20075;-67
2022/08/16 05:45:10;;;;;;;0.20;0.20;;;;;;;20.47;78.91;99655.25;5068281;28;20488;-68
2022/08/16 05:47:35;;;;;;;0.20;0.20;;;;;;;20.54;79.38;99664.47;5086045;28;20107;-68
2022/08/16 05:50:01;;;;;;;0.82;0.82;;;;;;;20.60;78.66;99657.13;5086553;28;20035;-68
2022/08/16 05:52:26;;;;;;;1.23;1.13;;;;;;;20.58;78.52;99666.91;5086411;28;20031;-67
2022/08/16 05:54:52;;;;;;;0.40;0.40;;;;;;;20.66;77.88;99659.38;5086392;28;20103;-68
2022/08/16 05:57:18;;;;;;;0.40;0.40;;;;;;;20.61;77.89;99658.81;5086309;28;20020;-68
2022/08/16 05:59:46;;;;;;;1.75;1.65;;;;;;;20.69;77.35;99667.09;5086258;28;20055;-68
2022/08/16 06:02:12;;;;;;;0.95;0.95;;;;;;;20.74;76.91;99666.78;5086293;28;20025;-68
2022/08/16 06:04:37;;;;;;;0.20;0.20;;;;;;;20.71;77.48;99665.22;5086360;28;20035;-69
2022/08/16 06:07:05;;;;;;;1.15;1.05;;;;;;;20.76;77.79;99663.13;5085763;28;20199;-68
2022/08/16 06:09:32;;;;;;;0.30;0.30;;;;;;;20.84;77.19;99661.78;5086182;28;20024;-68
2022/08/16 06:11:59;;;;;;;0.73;0.63;;;;;;;20.88;76.86;99666.75;5086057;28;20025;-68
2022/08/16 06:14:25;;;;;;;4.03;1.55;;;;;;;20.91;77.41;99677.16;5085807;28;20028;-68
2022/08/16 06:16:52;;;;;;;0.20;0.20;;;;;;;21.16;75.67;99664.19;5086176;28;20028;-68
2022/08/16 06:19:17;;;;;;;0.30;0.30;;;;;;;21.24;74.65;99663.69;5086080;28;20236;-68
2022/08/16 06:21:44;;;;;;;0.20;0.20;;;;;;;21.20;75.22;99657.75;5086249;28;20080;-68
2022/08/16 06:24:09;;;;;;;0.35;0.35;;;;;;;21.30;74.30;99658.00;5086104;28;20456;-69
2022/08/16 06:26:34;;;;;;;0.10;0.10;;;;;;;21.28;74.88;99662.53;5068025;28;20039;-69
2022/08/16 06:29:00;;;;;;;0.20;0.20;;;;;;;21.33;74.02;99646.38;5085645;28;20121;-69
2022/08/16 06:31:25;;;;;;;0.47;0.47;;;;;;;21.28;74.86;99647.53;5085989;28;20035;-69
2022/08/16 06:33:51;;;;;;;0.20;0.20;;;;;;;21.38;74.19;99647.78;5085805;28;20020;-69
2022/08/16 06:36:17;;;;;;;0.50;0.50;;;;;;;21.38;74.89;99652.19;5085817;28;20032;-69
2022/08/16 06:38:43;;;;;;;0.82;0.82;;;;;;;21.54;73.52;99655.53;5085929;28;20017;-69
2022/08/16 06:41:09;;;;;;;0.70;0.70;;;;;;;21.58;73.32;99657.97;5085755;28;20030;-68
2022/08/16 06:43:36;;;;;;;0.20;0.20;;;;;;;21.57;73.77;99650.97;5085555;28;20024;-69
2022/08/16 06:46:08;;;;;;;0.20;0.20;;;;;;;21.69;72.98;99660.75;5085348;28;20104;-69
2022/08/16 06:48:34;;;;;;;2.08;1.83;;;;;;;21.79;71.80;99653.91;5085819;28;20029;-69
2022/08/16 06:51:05;;;;;;;0.20;0.20;;;;;;;;;;5085678;28;20032;-69
2022/08/16 06:53:32;;;;;;;;;;;;;;;21.72;72.44;99657.03;5086179;28;20078;-69
2022/08/16 06:56:02;;;;;;;0.20;0.20;;;;;;;21.72;72.43;99659.69;5085862;28;19995;-69
2022/08/16 06:58:28;;;;;;;2.72;2.63;;;;;;;21.69;72.50;99657.25;5085646;28;20024;-69
2022/08/16 07:00:53;;;;;;;1.15;1.15;;;;;;;21.85;72.96;99665.00;5085716;28;20016;-69
2022/08/16 07:03:19;;;;;;;0.15;0.15;;;;;;;21.98;72.43;99657.09;5085721;28;20383;-68
2022/08/16 07:05:45;;;;;;;0.20;0.20;;;;;;;22.09;72.68;99640.50;5085541;28;20499;-69
2022/08/16 07:08:10;;;;;;;0.13;0.13;;;;;;;22.38;71.44;99653.47;5085540;28;20047;-69
2022/08/16 07:10:35;;;;;;;0.20;0.20;;;;;;;22.47;71.47;99642.25;5085492;28;20111;-69
2022/08/16 07:13:01;;;;;;;0.10;0.10;;;;;;;22.74;69.24;99653.63;5085475;28;20046;-69
2022/08/16 07:15:26;;;;;;;0.20;0.20;;;;;;;23.05;70.64;99642.63;5085243;28;20039;-67
2022/08/16 07:17:52;;;;;;;0.10;0.10;;;;;;;23.71;71.50;99639.50;5085556;28;20021;-68
2022/08/16 07:20:21;;;;;;;0.20;0.20;;;;;;;24.37;65.68;99639.81;5089031;28;20078;-68
2022/08/16 07:22:47;;;;;;;0.35;0.35;;;;;;;24.30;65.32;99643.94;5089552;28;20024;-69
2022/08/16 07:25:14;;;;;;;0.20;0.20;;;;;;;24.44;65.16;99651.63;5089165;28;20047;-69
2022/08/16 07:27:40;;;;;;;0.20;0.20;;;;;;;24.71;64.60;99641.59;5088796;28;20031;-68
2022/08/16 07:30:10;;;;;;;0.20;0.20;;;;;;;24.91;62.82;99642.66;5089114;28;20039;-68
2022/08/16 07:32:37;;;;;;;0.13;0.13;;;;;;;25.18;61.08;99648.47;5089390;28;20581;-70
2022/08/16 07:35:03;;;;;;;1.35;1.25;;;;;;;24.98;62.42;99622.63;5089339;28;20048;-70
2022/08/16 07:37:29;;;;;;;1.85;1.40;;;;;;;25.24;62.03;99640.03;5089396;28;20084;-68
2022/08/16 07:39:54;;;;;;;0.63;0.63;;;;;;;25.20;61.08;99647.41;5089136;28;20020;-69
2022/08/16 07:42:20;;;;;;;2.65;2.45;;;;;;;25.17;60.54;99658.28;5089274;28;20034;-69
2022/08/16 07:44:45;;;;;;;0.57;0.57;;;;;;;25.19;61.13;99651.00;5088851;28;20103;-69
2022/08/16 07:47:10;;;;;;;5.32;0.85;;;;;;;25.47;61.75;99646.06;5089045;28;20103;-68
2022/08/16 07:49:36;;;;;;;0.73;0.73;;;;;;;25.81;60.19;99641.56;5088926;28;20029;-68
2022/08/16 07:52:01;;;;;;;0.10;0.10;;;;;;;25.95;59.50;99638.56;5088784;28;20105;-70
2022/08/16 07:54:27;;;;;;;13.55;0.95;;;;;;;26.26;58.99;99639.53;5088871;28;20024;-69
2022/08/16 07:56:52;;;;;;;0.75;0.75;;;;;;;26.33;57.26;99643.34;5070627;28;20028;-69
2022/08/16 07:59:18;;;;;;;0.20;0.20;;;;;;;26.40;57.79;99639.19;5088633;28;20086;-69
2022/08/16 08:01:43;;;;;;;0.30;0.30;;;;;;;26.27;56.55;99644.72;5088655;28;20051;-69
2022/08/16 08:04:11;;;;;;;0.50;0.50;;;;;;;25.81;57.43;99641.56;5088532;28;20085;-70
2022/08/16 08:06:38;;;;;;;0.63;0.63;;;;;;;25.42;57.78;99644.75;5088752;28;20020;-69
2022/08/16 08:09:03;;;;;;;2.33;2.15;;;;;;;24.94;59.29;99647.72;5088495;28;20059;-69
2022/08/16 08:11:29;;;;;;;0.10;0.10;;;;;;;24.69;60.25;99647.03;5088324;28;20070;-69
2022/08/16 08:13:58;;;;;;;0.35;0.35;;;;;;;24.50;60.32;99639.69;5088486;28;20502;-69
2022/08/16 08:16:24;;;;;;;0.32;0.32;;;;;;;24.28;61.35;99657.31;5088549;28;20036;-69
2022/08/16 08:18:50;;;;;;;0.20;0.20;;;;;;;24.15;62.29;99646.84;5088637;28;20013;-67
2022/08/16 08:21:18;;;;;;;0.40;0.40;;;;;;;24.16;62.64;99648.50;5088185;28;20380;-69
2022/08/16 08:23:44;;;;;;;0.28;0.28;;;;;;;24.32;62.57;99644.66;5088446;28;20104;-69
2022/08/16 08:26:09;;;;;;;0.10;0.10;;;;;;;24.78;61.95;99642.78;5088250;28;20024;-69
2022/08/16 08:28:34;;;;;;;0.10;0.10;;;;;;;25.46;60.76;99641.69;5088109;28;20036;-70
2022/08/16 08:31:02;;;;;;;0.40;0.40;;;;;;;25.98;58.54;99643.59;5088191;28;20032;-69
2022/08/16 08:33:27;;;;;;;0.20;0.20;;;;;;;26.07;58.89;99639.28;5088194;28;20027;-68
2022/08/16 08:35:58;;;;;;;0.10;0.10;;;;;;;26.73;58.74;99639.81;5088100;28;20033;-68
2022/08/16 08:38:24;;;;;;;0.33;0.33;;;;;;;27.39;57.42;99634.00;5088207;28;20044;-69
2022/08/16 08:40:49;;;;;;;0.30;0.30;;;;;;;28.00;55.41;99643.56;5088088;28;20028;-69
2022/08/16 08:43:16;;;;;;;0.20;0.20;;;;;;;28.28;54.56;99654.28;5088170;28;20024;-69
2022/08/16 08:45:42;;;;;;;1.05;1.05;;;;;;;28.47;52.96;99652.53;5088164;28;20087;-69
2022/08/16 08:48:07;;;;;;;0.20;0.20;;;;;;;28.71;52.64;99659.97;5088194;28;20028;-69
2022/08/16 08:50:33;;;;;;;0.10;0.10;;;;;;;28.69;50.40;99648.63;5089130;28;20056;-70
2022/08/16 08:53:00;;;;;;;0.38;0.38;;;;;;;28.35;50.38;99650.06;5088829;28;20076;-70
2022/08/16 08:55:26;;;;;;;0.20;0.20;;;;;;;28.28;51.56;99648.94;5087977;28;20024;-70
2022/08/16 08:57:52;;;;;;;0.47;0.45;;;;;;;28.41;50.78;99653.97;5088010;28;20076;-68
2022/08/16 09:00:20;;;;;;;0.13;0.13;;;;;;;28.43;51.25;99668.00;5087871;28;20021;-69
2022/08/16 09:02:45;;;;;;;0.13;0.13;;;;;;;28.51;51.99;99661.94;5087610;28;20043;-69
2022/08/16 09:05:15;;;;;;;0.22;0.22;;;;;;;28.61;51.40;99669.88;5069785;28;20017;-69
2022/08/16 09:07:40;;;;;;;0.35;0.35;;;;;;;28.65;51.40;99661.44;5087610;28;20027;-68
2022/08/16 09:10:07;;;;;;;0.30;0.30;;;;;;;28.87;50.25;99667.31;5087405;28;20029;-69
2022/08/16 09:12:33;;;;;;;0.20;0.20;;;;;;;28.74;50.96;99672.22;5087366;28;20024;-69
2022/08/16 09:14:59;;;;;;;0.50;0.50;;;;;;;29.09;50.02;99669.75;5087220;28;20084;-69
2022/08/16 09:17:25;;;;;;;0.20;0.20;;;;;;;29.09;50.44;99667.91;5087274;28;20024;-68
2022/08/16 09:19:50;;;;;;;0.45;0.35;;;;;;;29.23;50.40;99663.88;5087327;28;20048;-70
2022/08/16 09:22:18;;;;;;;0.32;0.32;;;;;;;29.98;51.38;99660.91;5087284;28;20032;-69
2022/08/16 09:24:43;;;;;;;0.10;0.10;;;;;;;30.91;47.62;99669.19;5087384;28;20028;-70
2022/08/16 09:27:09;;;;;;;0.43;0.43;;;;;;;30.71;46.21;99665.91;5087082;28;20371;-69
2022/08/16 09:29:35;;;;;;;0.30;0.30;;;;;;;30.39;46.62;99662.97;5086990;28;20031;-69
2022/08/16 09:32:00;;;;;;;0.45;0.45;;;;;;;29.96;47.46;99653.03;5087017;28;20020;-69
2022/08/16 09:34:26;;;;;;;0.38;0.38;;;;;;;30.01;47.79;99655.25;5086987;28;20035;-70
2022/08/16 09:36:51;;;;;;;0.22;0.22;;;;;;;30.00;47.27;99645.56;5086983;28;20134;-69
2022/08/16 09:39:17;;;;;;;1.25;0.65;;;;;;;30.00;47.41;99650.91;5086924;28;20027;-69
2022/08/16 09:41:47;;;;;;;0.10;0.10;;;;;;;30.46;47.38;99657.81;5086005;28;20028;-69
2022/08/16 09:44:12;;;;;;;0.20;0.20;;;;;;;30.34;46.59;99657.28;5086671;28;20016;-67
2022/08/16 09:46:38;;;;;;;0.25;0.25;;;;;;;30.36;46.40;99660.63;5086771;28;20067;-69
2022/08/16 09:49:03;;;;;;;0.25;0.25;;;;;;;30.41;46.43;99661.84;5086414;28;20082;-68
2022/08/16 09:51:28;;;;;;;0.10;0.10;;;;;;;30.28;46.49;99645.38;5086450;28;20033;-68
2022/08/16 09:53:54;;;;;;;0.13;0.13;;;;;;;30.11;47.04;99650.63;5086616;28;20475;-69
2022/08/16 09:56:29;;;;;;;0.82;0.82;;;;;;;30.52;48.01;99654.50;5086362;28;20054;-67
2022/08/16 09:58:56;;;;;;;2.50;2.30;;;;;;;31.27;45.43;99649.28;5068386;28;20028;-68
2022/08/16 10:01:23;;;;;;;0.10;0.10;;;;;;;31.26;45.44;99652.97;5086487;28;20035;-68
2022/08/16 10:03:50;;;;;;;0.10;0.10;;;;;;;31.89;45.06;99661.31;5086416;28;20035;-68
2022/08/16 10:06:16;;;;;;;0.22;0.22;;;;;;;32.46;45.14;99657.78;5086582;28;20020;-68
2022/08/16 10:08:42;;;;;;;0.35;0.35;;;;;;;33.12;44.47;99654.75;5086191;28;20043;-69
2022/08/16 10:13:52;;;;;;;0.40;0.40;;;;;;;33.20;39.83;99661.06;5071205;28;20078;-69
2022/08/16 10:16:17;;;;;;;0.30;0.30;;;;;;;31.39;42.34;99660.56;5086050;28;20028;-69
2022/08/16 10:18:42;;;;;;;0.95;0.93;;;;;;;29.88;45.35;99661.03;5086122;28;20013;-69
2022/08/16 10:21:08;;;;;;;0.63;0.63;;;;;;;28.76;48.42;99667.53;5086236;28;20028;-68
2022/08/16 10:23:35;;;;;;;4.55;0.75;;;;;;;28.09;49.74;99658.69;5085986;28;20052;-69
2022/08/16 10:26:00;;;;;;;1.38;1.35;;;;;;;27.87;50.71;99646.56;5086217;28;20020;-69
2022/08/16 10:28:28;;;;;;;0.30;0.30;;;;;;;27.97;51.47;99655.38;5085753;28;20174;-67
2022/08/16 10:30:53;;;;;;;0.25;0.25;;;;;;;27.87;51.28;99666.09;5086212;28;20031;-68
2022/08/16 10:33:18;;;;;;;0.47;0.47;;;;;;;27.74;51.68;99665.53;5086027;28;20024;-69
2022/08/16 10:35:45;;;;;;;0.20;0.20;;;;;;;27.51;52.67;99661.31;5085843;28;20464;-69
2022/08/16 10:38:12;;;;;;;0.70;0.70;;;;;;;27.47;53.51;99663.47;5086036;28;20020;-70
2022/08/16 10:40:39;;;;;;;1.65;1.55;;;;;;;27.41;53.65;99652.50;5086022;28;20087;-68
2022/08/16 10:43:05;;;;;;;0.30;0.30;;;;;;;27.41;53.74;99660.50;5086004;28;20024;-70
2022/08/16 10:45:31;;;;;;;0.25;0.25;;;;;;;27.40;53.41;99657.00;5085394;28;20053;-69
2022/08/16 10:47:58;;;;;;;0.75;0.75;;;;;;;27.36;53.86;99660.94;5085809;28;20033;-69
2022/08/16 10:50:24;;;;;;;0.45;0.45;;;;;;;27.29;54.50;99665.13;5067670;28;20058;-69
2022/08/16 10:52:52;;;;;;;0.43;0.43;;;;;;;27.33;54.58;99653.22;5085681;28;20020;-70
2022/08/16 10:55:18;;;;;;;0.20;0.20;;;;;;;27.40;54.66;99646.34;5085450;28;20024;-69
2022/08/16 10:57:43;;;;;;;0.10;0.10;;;;;;;27.86;54.41;99650.22;5067394;28;20495;-69
2022/08/16 11:00:13;;;;;;;0.65;0.65;;;;;;;28.10;53.87;99641.69;5067361;28;20016;-70
2022/08/16 11:02:39;;;;;;;0.10;0.10;;;;;;;28.38;53.56;99640.91;5085720;28;20111;-69
2022/08/16 11:05:11;;;;;;;0.10;0.10;;;;;;;28.93;52.20;99637.34;5085463;28;20027;-68
2022/08/16 11:07:41;;;;;;;0.90;0.82;;;;;;;29.36;50.66;99635.91;5085508;28;20033;-68
2022/08/16 11:10:08;;;;;;;0.27;0.27;;;;;;;29.66;50.63;99634.66;5085180;28;20056;-69
2022/08/16 11:12:33;;;;;;;0.82;0.82;;;;;;;30.11;48.40;99639.94;5085534;28;20029;-70
2022/08/16 11:14:59;;;;;;;0.30;0.30;;;;;;;30.00;47.85;99624.16;5085332;28;20028;-70
2022/08/16 11:17:25;;;;;;;1.55;0.68;;;;;;;29.75;48.24;99615.97;5085349;28;20028;-68
2022/08/16 11:19:51;;;;;;;0.30;0.30;;;;;;;29.27;49.12;99618.94;5085342;28;20020;-68
2022/08/16 11:22:17;;;;;;;0.10;0.10;;;;;;;28.86;50.22;99617.59;5085400;28;20055;-69
2022/08/16 11:24:42;;;;;;;0.20;0.20;;;;;;;28.82;51.00;99614.38;5085068;28;20476;-69
2022/08/16 11:27:10;;;;;;;0.52;0.40;;;;;;;29.02;50.93;99624.09;5084629;28;20024;-69
2022/08/16 11:29:35;;;;;;;0.10;0.10;;;;;;;29.09;49.96;99619.81;5085076;28;20134;-69
2022/08/16 11:32:04;;;;;;;0.20;0.20;;;;;;;28.85;50.68;99629.25;5085191;28;20020;-69
2022/08/16 11:34:29;;;;;;;1.17;1.10;;;;;;;28.33;51.59;99626.19;5085171;28;20030;-68